This is the latest recevied weather packets stored in our database for station/object AA4OM-2. If no packets are shown the sender has not sent any weather packets the latest 10 day(s).
| Time | Temp. | Humidity | Pressure | Rain* | Wind** | Luminosity | Snow |
|---|---|---|---|---|---|---|---|
| 1777151561 | 26.67° C | 48% | 1009.8 hPa | 0 mm | - | 548 W/m² | - |
| 1777151258 | 26.67° C | 49% | 1009.5 hPa | 0 mm | - | 582 W/m² | - |
| 1777150953 | 26.67° C | 48% | 1009.7 hPa | 0 mm | - | 592 W/m² | - |
| 1777150648 | 26.11° C | 49% | 1010.1 hPa | 0 mm | - | 605 W/m² | - |
| 1777150345 | 26.11° C | 51% | 1010 hPa | 0 mm | - | 623 W/m² | - |
| 1777150042 | 26.11° C | 49% | 1009.9 hPa | 0 mm | - | 643 W/m² | - |
| 1777149737 | 26.67° C | 50% | 1009.8 hPa | 0 mm | - | 663 W/m² | - |
| 1777149434 | 26.11° C | 49% | 1009.8 hPa | 0 mm | - | 695 W/m² | - |
| 1777149130 | 26.11° C | 47% | 1010 hPa | 0 mm | - | 692 W/m² | - |
| 1777148824 | 26.11° C | 49% | 1010 hPa | 0 mm | - | 703 W/m² | - |
| 1777148522 | 25.56° C | 51% | 1010.1 hPa | 0 mm | - | 714 W/m² | - |
| 1777148217 | 25.56° C | 53% | 1010.2 hPa | 0 mm | - | 733 W/m² | - |
| 1777147914 | 26.11° C | 52% | 1010.3 hPa | 0 mm | - | 124 W/m² | - |
| 1777147610 | 27.78° C | 48% | 1010.4 hPa | 0 mm | - | 691 W/m² | - |
| 1777147305 | 26.67° C | 49% | 1010.4 hPa | 0 mm | - | 851 W/m² | - |
| 1777147001 | 26.11° C | 49% | 1010.5 hPa | 0 mm | - | 857 W/m² | - |
| 1777146698 | 26.11° C | 52% | 1010.4 hPa | 0 mm | - | 845 W/m² | - |
| 1777146397 | 25.56° C | 52% | 1010.5 hPa | 0 mm | - | 844 W/m² | - |
| 1777146095 | 25° C | 55% | 1010.4 hPa | 0 mm | - | 870 W/m² | - |
| 1777145790 | 24.44° C | 55% | 1010.6 hPa | 0 mm | - | 458 W/m² | - |
| 1777145487 | 25° C | 53% | 1010.6 hPa | 0 mm | - | 184 W/m² | - |
| 1777145182 | 26.11° C | 49% | 1010.7 hPa | 0 mm | - | 975 W/m² | - |
| 1777144877 | 25.56° C | 52% | 1010.7 hPa | 0 mm | - | 980 W/m² | - |
| 1777144576 | 25° C | 55% | 1010.7 hPa | 0 mm | - | 931 W/m² | - |
| 1777144273 | 25.56° C | 54% | 1010.9 hPa | 0 mm | - | 242 W/m² | - |
* Rain latest hour (hover to see other rain measurements)
** Current wind speed in m/s (hover to see current wind gust speed)